Etusivu
METAR-TAF:

METAR-TAF

Lentoasemat :

Saint-Brieuc, Ranska

Leveyspiiri: 48-32N, Pituuspiiri: 002-51W, korkeus merenpinnasta: 138 m

Tämänhetkinen sää

Tämä raportti tehtiin 6 tuntia ja 19 minuuttia sitten, kello 22.00 UTC
Tuuli 5 kn lännestä/luoteesta
Lämpötila 7°C
Kosteus 93%
Ilmanpaine 1026 hPa
Näkyvyys 10 km tai enemmän
Hajonneita pilviä 700 ft:n korkeudessa
Hajonneita pilviä 1200 ft:n korkeudessa
Hajonneita pilviä 6200 ft:n korkeudessa

METAR: LFRT 182200Z AUTO 30005KT 9999 BKN007 BKN012 BKN062 07/06 Q1026

Aika: 05:19 (04:19 UTC)


TAF: puuttuu

Säähavainnot ja -ennusteet yli 4000 lentoasemalta (METAR- ja TAF-raportit).

Käytössä olevat sääasemat on merkitty karttaan keltaisilla ja punaisilla pisteillä.

Aseta hiiri pisteen päälle nähdäksesi sääaseman nimen.

Klikkaa sitten nähdäksesi säähavainnot ja -ennusteet.

Kartan vaihtaminen: klikkaa mustalla rastilla varustettuja vihreitä pisteitä, niin voit zoomata sisään; viivalla varustettua vihreää pistettä, niin voit zoomata ulos tai vihreitä nuolia, niin pääset viereisille kartoille.


METAR-TAF: